Time;durP1;ratioP1;P1;durP2;ratioP2;P2;SDS_P1;SDS_P2;PMS_P1;PMS_P2;Temp;Humidity;BMP_temperature;BMP_pressure;BME280_temperature;BME280_humidity;BME280_pressure;Samples;Min_cycle;Max_cycle;Signal;HPM_P1;HPM_P2
2023/02/04 00:00:47;;;;;;;8.98;1.00;;;;;;;;;;5098986;28;20035;-64
2023/02/04 00:03:13;;;;;;;5.53;0.80;;;;;;;;;;5096692;28;20020;-64
2023/02/04 00:05:38;;;;;;;2.85;0.40;;;;;;;;;;5091741;28;20043;-64
2023/02/04 00:08:04;;;;;;;6.80;0.70;;;;;;;;;;5083617;28;20025;-66
2023/02/04 00:10:29;;;;;;;4.13;0.52;;;;;;;;;;5081845;28;20090;-64
2023/02/04 00:12:54;;;;;;;2.90;0.40;;;;;;;;;;5079958;28;20025;-65
2023/02/04 00:15:20;;;;;;;2.28;0.52;;;;;;;;;;5073435;28;20033;-65
2023/02/04 00:17:45;;;;;;;3.05;0.50;;;;;;;;;;5071582;28;20035;-66
2023/02/04 00:20:10;;;;;;;2.77;0.60;;;;;;;;;;5082694;28;20032;-65
2023/02/04 00:22:35;;;;;;;3.57;0.60;;;;;;;;;;5076184;28;20033;-68
2023/02/04 00:25:00;;;;;;;3.83;0.60;;;;;;;;;;5082251;28;20039;-65
2023/02/04 00:27:25;;;;;;;3.90;0.60;;;;;;;;;;5077151;28;20044;-67
2023/02/04 00:29:51;;;;;;;3.40;0.75;;;;;;;;;;5071019;28;20024;-65
2023/02/04 00:32:16;;;;;;;3.50;0.70;;;;;;;;;;5080305;28;20106;-67
2023/02/04 00:34:41;;;;;;;4.60;0.90;;;;;;;;;;5089487;28;20460;-68
2023/02/04 00:37:06;;;;;;;2.90;0.70;;;;;;;;;;5082555;28;20454;-67
2023/02/04 00:39:31;;;;;;;4.33;1.10;;;;;;;;;;5085963;28;20031;-65
2023/02/04 00:41:57;;;;;;;2.05;0.55;;;;;;;;;;5081773;28;21032;-66
2023/02/04 00:44:22;;;;;;;2.07;0.60;;;;;;;;;;5087103;28;20030;-66
2023/02/04 00:46:47;;;;;;;1.88;0.60;;;;;;;;;;5083985;28;20050;-67
2023/02/04 00:49:12;;;;;;;1.45;0.50;;;;;;;;;;5082588;28;20020;-64
2023/02/04 00:51:38;;;;;;;1.43;0.53;;;;;;;;;;5085869;28;20031;-66
2023/02/04 00:54:04;;;;;;;1.90;0.60;;;;;;;;;;5086325;28;20016;-66
2023/02/04 00:56:29;;;;;;;1.90;0.55;;;;;;;;;;5088187;28;20028;-65
2023/02/04 00:58:54;;;;;;;2.97;0.50;;;;;;;;;;5079110;28;20044;-65
2023/02/04 01:01:19;;;;;;;1.27;0.50;;;;;;;;;;5088235;28;20024;-70
2023/02/04 01:03:44;;;;;;;3.23;0.60;;;;;;;;;;5079927;28;20529;-66
2023/02/04 01:06:10;;;;;;;1.40;0.60;;;;;;;;;;5086256;28;20040;-66
2023/02/04 01:08:35;;;;;;;4.10;0.80;;;;;;;;;;5079342;28;20025;-66
2023/02/04 01:11:00;;;;;;;1.93;0.53;;;;;;;;;;5076542;28;20032;-66
2023/02/04 01:13:26;;;;;;;3.27;0.70;;;;;;;;;;5088414;28;20034;-69
2023/02/04 01:15:51;;;;;;;1.65;0.52;;;;;;;;;;5086403;28;22206;-65
2023/02/04 01:18:16;;;;;;;2.42;0.60;;;;;;;;;;5088601;28;20109;-64
2023/02/04 01:20:41;;;;;;;3.15;0.85;;;;;;;;;;5077812;28;20028;-69
2023/02/04 01:23:06;;;;;;;2.10;0.60;;;;;;;;;;5086124;28;20466;-65
2023/02/04 01:25:31;;;;;;;5.85;1.02;;;;;;;;;;5085622;28;20044;-65
2023/02/04 01:27:57;;;;;;;2.80;0.80;;;;;;;;;;5084355;28;20023;-66
2023/02/04 01:30:22;;;;;;;4.63;0.80;;;;;;;;;;5082030;28;20031;-65
2023/02/04 01:32:47;;;;;;;3.90;0.93;;;;;;;;;;5091496;28;20032;-66
2023/02/04 01:35:12;;;;;;;3.30;0.70;;;;;;;;;;5091442;28;20055;-64
2023/02/04 01:37:37;;;;;;;3.15;0.80;;;;;;;;;;5088765;28;20043;-69
2023/02/04 01:40:03;;;;;;;2.90;0.80;;;;;;;;;;5091102;28;20072;-66
2023/02/04 01:42:28;;;;;;;2.83;0.90;;;;;;;;;;5091984;28;20024;-67
2023/02/04 01:44:53;;;;;;;2.67;0.73;;;;;;;;;;5090299;28;20043;-67
2023/02/04 01:47:19;;;;;;;2.97;1.00;;;;;;;;;;5089431;28;20448;-66
2023/02/04 01:49:45;;;;;;;4.68;0.98;;;;;;;;;;5089943;28;20031;-65
2023/02/04 01:52:11;;;;;;;4.00;0.98;;;;;;;;;;5085270;28;20542;-66
2023/02/04 01:54:36;;;;;;;3.50;0.93;;;;;;;;;;5087821;28;20103;-67
2023/02/04 01:57:02;;;;;;;2.17;0.93;;;;;;;;;;5090103;28;20366;-65
2023/02/04 01:59:27;;;;;;;3.45;0.88;;;;;;;;;;5085998;28;20531;-68
2023/02/04 02:01:53;;;;;;;3.58;1.00;;;;;;;;;;5081643;28;20024;-64
2023/02/04 02:04:29;;;;;;;3.10;1.10;;;;;;;;;;5087039;28;20373;-66
2023/02/04 02:06:57;;;;;;;3.63;1.00;;;;;;;;;;5088985;28;20036;-66
2023/02/04 02:09:22;;;;;;;1.65;0.68;;;;;;;;;;5087502;28;20032;-65
2023/02/04 02:11:47;;;;;;;4.00;1.10;;;;;;;;;;5088573;28;20016;-65
2023/02/04 02:14:13;;;;;;;4.93;1.00;;;;;;;;;;5091636;28;20032;-66
2023/02/04 02:16:38;;;;;;;3.47;0.90;;;;;;;;;;5086601;28;20527;-65
2023/02/04 02:19:05;;;;;;;3.03;0.83;;;;;;;;;;5084453;28;20104;-65
2023/02/04 02:21:45;;;;;;;3.28;0.80;;;;;;;;;;5084488;28;20020;-65
2023/02/04 02:24:37;;;;;;;2.47;0.82;;;;;;;;;;5084167;28;20049;-65
2023/02/04 02:27:04;;;;;;;2.60;0.98;;;;;;;;;;5088574;28;20044;-70
2023/02/04 02:29:29;;;;;;;4.47;1.05;;;;;;;;;;5087156;28;20529;-66
2023/02/04 02:31:56;;;;;;;2.90;0.90;;;;;;;;;;5081985;28;20024;-65
2023/02/04 02:34:21;;;;;;;3.75;1.00;;;;;;;;;;5093989;28;20020;-71
2023/02/04 02:36:46;;;;;;;2.97;0.90;;;;;;;;;;5105039;28;20031;-74
2023/02/04 02:39:11;;;;;;;3.95;1.10;;;;;;;;;;5100645;28;20461;-67
2023/02/04 02:41:37;;;;;;;3.47;1.00;;;;;;;;;;5098050;28;20028;-69
2023/02/04 02:44:02;;;;;;;2.90;0.93;;;;;;;;;;5101185;28;20070;-67
2023/02/04 02:46:27;;;;;;;3.57;1.10;;;;;;;;;;5110877;28;20046;-67
2023/02/04 02:48:53;;;;;;;4.00;1.25;;;;;;;;;;5105203;28;20036;-66
2023/02/04 02:51:18;;;;;;;2.85;1.00;;;;;;;;;;5102651;28;20031;-66
2023/02/04 02:53:44;;;;;;;3.43;0.90;;;;;;;;;;5092973;28;20099;-65
2023/02/04 02:56:09;;;;;;;6.53;1.23;;;;;;;;;;5087451;28;20031;-64
2023/02/04 02:58:38;;;;;;;3.80;1.20;;;;;;;;;;5084163;28;20008;-65
2023/02/04 03:01:04;;;;;;;4.05;1.00;;;;;;;;;;5081807;28;20023;-65
2023/02/04 03:03:32;;;;;;;3.10;1.13;;;;;;;;;;5089624;28;20381;-66
2023/02/04 03:06:00;;;;;;;3.33;1.08;;;;;;;;;;5092617;28;20132;-66
2023/02/04 03:08:25;;;;;;;5.13;1.10;;;;;;;;;;5081515;28;20028;-65
2023/02/04 03:10:51;;;;;;;5.10;1.47;;;;;;;;;;5085461;28;20165;-65
2023/02/04 03:13:16;;;;;;;3.23;1.10;;;;;;;;;;5090569;28;20012;-68
2023/02/04 03:15:43;;;;;;;4.20;1.08;;;;;;;;;;5081279;28;20032;-67
2023/02/04 03:18:08;;;;;;;3.33;1.10;;;;;;;;;;5075636;28;20157;-67
2023/02/04 03:20:34;;;;;;;3.85;1.10;;;;;;;;;;5079809;28;20020;-68
2023/02/04 03:22:59;;;;;;;3.42;1.20;;;;;;;;;;5085097;28;20471;-64
2023/02/04 03:25:28;;;;;;;4.18;1.10;;;;;;;;;;5079777;28;20051;-64
2023/02/04 03:27:53;;;;;;;3.08;1.00;;;;;;;;;;5086765;28;20175;-70
2023/02/04 03:30:19;;;;;;;4.78;1.40;;;;;;;;;;5084157;28;20545;-66
2023/02/04 03:32:44;;;;;;;4.30;1.30;;;;;;;;;;5078107;28;20362;-66
2023/02/04 03:35:09;;;;;;;4.00;1.00;;;;;;;;;;5081199;28;20012;-67
2023/02/04 03:37:34;;;;;;;4.18;1.23;;;;;;;;;;5083445;28;20047;-67
2023/02/04 03:40:00;;;;;;;3.70;1.08;;;;;;;;;;5093822;28;20066;-65
2023/02/04 03:42:25;;;;;;;3.83;1.07;;;;;;;;;;5092724;28;20465;-66
2023/02/04 03:44:50;;;;;;;4.07;1.10;;;;;;;;;;5088682;28;20035;-66
2023/02/04 03:47:15;;;;;;;3.70;1.20;;;;;;;;;;5091418;28;20028;-65
2023/02/04 03:49:40;;;;;;;3.05;1.00;;;;;;;;;;5087425;28;20329;-66
2023/02/04 03:52:05;;;;;;;3.50;0.90;;;;;;;;;;5087363;28;20028;-66
2023/02/04 03:54:31;;;;;;;3.40;0.90;;;;;;;;;;5091489;28;20027;-66
2023/02/04 03:56:56;;;;;;;3.03;0.98;;;;;;;;;;5089193;28;20031;-66
2023/02/04 03:59:21;;;;;;;2.72;0.93;;;;;;;;;;5088745;28;20067;-72
2023/02/04 04:01:46;;;;;;;3.58;0.98;;;;;;;;;;5087548;28;20166;-65
2023/02/04 04:04:11;;;;;;;3.88;1.00;;;;;;;;;;5089810;28;20031;-68
2023/02/04 04:06:36;;;;;;;2.97;0.80;;;;;;;;;;5086206;28;20412;-66
2023/02/04 04:09:03;;;;;;;3.17;1.00;;;;;;;;;;5087096;28;20016;-68
2023/02/04 04:11:28;;;;;;;3.13;1.00;;;;;;;;;;5080939;28;20081;-66
2023/02/04 04:13:53;;;;;;;2.77;0.83;;;;;;;;;;5087360;28;20419;-65
2023/02/04 04:16:19;;;;;;;2.53;0.90;;;;;;;;;;5085778;28;20385;-71
2023/02/04 04:18:44;;;;;;;2.63;0.90;;;;;;;;;;5087138;28;20538;-67
2023/02/04 04:21:10;;;;;;;3.77;1.10;;;;;;;;;;5087030;28;20545;-64
2023/02/04 04:23:35;;;;;;;3.55;1.10;;;;;;;;;;5085723;28;20016;-68
2023/02/04 04:26:00;;;;;;;2.70;0.90;;;;;;;;;;5084275;28;20184;-64
2023/02/04 04:28:25;;;;;;;2.77;0.90;;;;;;;;;;5085282;28;20056;-67
2023/02/04 04:30:50;;;;;;;3.53;0.90;;;;;;;;;;5087932;28;20027;-66
2023/02/04 04:33:15;;;;;;;4.17;0.90;;;;;;;;;;5086819;28;20473;-67
2023/02/04 04:35:41;;;;;;;3.53;0.90;;;;;;;;;;5087326;28;20032;-66
2023/02/04 04:38:06;;;;;;;2.60;0.88;;;;;;;;;;5084640;28;20040;-65
2023/02/04 04:40:31;;;;;;;2.58;0.80;;;;;;;;;;5086520;28;20373;-67
2023/02/04 04:42:56;;;;;;;2.30;0.70;;;;;;;;;;5080607;28;20020;-66
2023/02/04 04:45:21;;;;;;;2.70;0.90;;;;;;;;;;5084037;28;20127;-68
2023/02/04 04:47:46;;;;;;;2.63;0.87;;;;;;;;;;5085079;28;20021;-66
2023/02/04 04:50:11;;;;;;;2.80;0.80;;;;;;;;;;5080943;28;20020;-66
2023/02/04 04:52:37;;;;;;;3.65;1.00;;;;;;;;;;5084782;28;20031;-66
2023/02/04 04:55:02;;;;;;;2.80;0.88;;;;;;;;;;5090744;28;20013;-65
2023/02/04 04:57:27;;;;;;;3.33;0.93;;;;;;;;;;5083604;28;20020;-65
2023/02/04 04:59:52;;;;;;;4.03;0.90;;;;;;;;;;5087360;28;20028;-65
2023/02/04 05:02:18;;;;;;;2.27;0.70;;;;;;;;;;5081789;28;20019;-66
2023/02/04 05:04:43;;;;;;;3.88;1.15;;;;;;;;;;5087563;28;20078;-65
2023/02/04 05:07:08;;;;;;;3.03;0.95;;;;;;;;;;5085814;28;20028;-65
2023/02/04 05:09:33;;;;;;;2.42;0.77;;;;;;;;;;5089985;28;20473;-68
2023/02/04 05:11:58;;;;;;;3.53;0.88;;;;;;;;;;5092526;28;20089;-65
2023/02/04 05:14:23;;;;;;;2.53;0.90;;;;;;;;;;5094564;28;20027;-68
2023/02/04 05:16:48;;;;;;;2.87;0.93;;;;;;;;;;5087790;28;20332;-66
2023/02/04 05:19:14;;;;;;;2.67;1.00;;;;;;;;;;5094572;28;20070;-66
2023/02/04 05:21:39;;;;;;;3.97;1.30;;;;;;;;;;5075996;28;20063;-66
2023/02/04 05:24:05;;;;;;;3.60;1.10;;;;;;;;;;5092805;28;20460;-67
2023/02/04 05:26:30;;;;;;;3.35;1.10;;;;;;;;;;5097373;28;20380;-66
2023/02/04 05:28:56;;;;;;;4.03;1.48;;;;;;;;;;5109121;28;20028;-65
2023/02/04 05:31:21;;;;;;;3.05;1.10;;;;;;;;;;5094344;28;20031;-71
2023/02/04 05:33:46;;;;;;;4.90;1.52;;;;;;;;;;5078643;28;20069;-66
2023/02/04 05:36:11;;;;;;;4.88;1.60;;;;;;;;;;5092697;28;20028;-67
2023/02/04 05:38:36;;;;;;;3.55;1.45;;;;;;;;;;5077573;28;20021;-65
2023/02/04 05:41:01;;;;;;;4.97;1.30;;;;;;;;;;5078379;28;20098;-68
2023/02/04 05:43:27;;;;;;;3.53;1.20;;;;;;;;;;5092833;28;20016;-68
2023/02/04 05:45:52;;;;;;;3.50;1.20;;;;;;;;;;5090057;28;20089;-66
2023/02/04 05:48:17;;;;;;;4.57;1.20;;;;;;;;;;5098012;28;20097;-68
2023/02/04 05:50:42;;;;;;;3.30;1.08;;;;;;;;;;5107854;28;20024;-67
2023/02/04 05:53:08;;;;;;;3.92;1.20;;;;;;;;;;5101519;28;20017;-67
2023/02/04 05:55:33;;;;;;;5.00;1.25;;;;;;;;;;5102697;28;20034;-66
2023/02/04 05:57:58;;;;;;;5.35;1.10;;;;;;;;;;5081960;28;20017;-65
2023/02/04 06:00:23;;;;;;;3.03;1.10;;;;;;;;;;5087423;28;20111;-67
2023/02/04 06:02:48;;;;;;;5.75;1.38;;;;;;;;;;5091293;28;20362;-66
2023/02/04 06:05:14;;;;;;;3.90;1.25;;;;;;;;;;5090873;28;20473;-65
2023/02/04 06:07:39;;;;;;;4.33;1.20;;;;;;;;;;5084334;28;20024;-65
2023/02/04 06:10:04;;;;;;;3.50;1.07;;;;;;;;;;5085309;28;20489;-66
2023/02/04 06:12:29;;;;;;;4.37;1.20;;;;;;;;;;5084787;28;20103;-65
2023/02/04 06:14:55;;;;;;;4.40;1.30;;;;;;;;;;5090418;28;20465;-66
2023/02/04 06:17:20;;;;;;;5.40;1.33;;;;;;;;;;5076575;28;20397;-65
2023/02/04 06:19:45;;;;;;;5.50;1.30;;;;;;;;;;5092983;28;20031;-65
2023/02/04 06:22:10;;;;;;;4.63;1.38;;;;;;;;;;5089073;28;20072;-65
2023/02/04 06:24:35;;;;;;;3.60;1.08;;;;;;;;;;5095641;28;20027;-67
2023/02/04 06:27:00;;;;;;;4.25;1.40;;;;;;;;;;5097228;28;20020;-66
2023/02/04 06:29:26;;;;;;;3.53;1.15;;;;;;;;;;5103366;28;20016;-71
2023/02/04 06:31:51;;;;;;;6.07;1.60;;;;;;;;;;5095278;28;20062;-67
2023/02/04 06:34:16;;;;;;;4.30;1.10;;;;;;;;;;5091640;28;20108;-67
2023/02/04 06:36:41;;;;;;;4.07;1.00;;;;;;;;;;5093486;28;20546;-66
2023/02/04 06:39:06;;;;;;;5.20;1.20;;;;;;;;;;5099309;28;20031;-70
2023/02/04 06:41:31;;;;;;;4.13;1.05;;;;;;;;;;5109440;28;20024;-66
2023/02/04 06:43:56;;;;;;;4.17;1.10;;;;;;;;;;5099061;28;20027;-67
2023/02/04 06:46:22;;;;;;;3.58;1.17;;;;;;;;;;5092923;28;20127;-65
2023/02/04 06:48:47;;;;;;;4.30;1.10;;;;;;;;;;5095516;28;20024;-66
2023/02/04 06:51:12;;;;;;;4.37;1.40;;;;;;;;;;5079583;28;20024;-65
2023/02/04 06:53:39;;;;;;;4.03;1.13;;;;;;;;;;5088795;28;20457;-66
2023/02/04 06:56:04;;;;;;;4.05;1.20;;;;;;;;;;5088954;28;20515;-65
2023/02/04 06:58:29;;;;;;;7.60;1.30;;;;;;;;;;5086399;28;20048;-66
2023/02/04 07:00:54;;;;;;;4.85;1.10;;;;;;;;;;5077287;28;20031;-68
2023/02/04 07:03:19;;;;;;;4.55;1.25;;;;;;;;;;5085252;28;20043;-66
2023/02/04 07:05:44;;;;;;;4.10;1.13;;;;;;;;;;5086195;28;20040;-65
2023/02/04 07:08:10;;;;;;;4.20;1.30;;;;;;;;;;5079305;28;20496;-66
2023/02/04 07:10:35;;;;;;;4.87;1.40;;;;;;;;;;5085163;28;20028;-66
2023/02/04 07:13:00;;;;;;;4.13;1.30;;;;;;;;;;5073853;28;20037;-66
2023/02/04 07:15:25;;;;;;;5.50;1.23;;;;;;;;;;5082481;28;20026;-66
2023/02/04 07:17:51;;;;;;;6.00;1.30;;;;;;;;;;5086328;28;20107;-65
2023/02/04 07:20:16;;;;;;;4.45;1.20;;;;;;;;;;5079268;28;20046;-66
2023/02/04 07:22:41;;;;;;;3.97;1.03;;;;;;;;;;5088754;28;20563;-68
2023/02/04 07:25:07;;;;;;;5.10;1.40;;;;;;;;;;5074457;28;20085;-66
2023/02/04 07:27:32;;;;;;;4.25;1.20;;;;;;;;;;5071853;28;20959;-66
2023/02/04 07:29:57;;;;;;;4.70;1.33;;;;;;;;;;5077154;28;20098;-66
2023/02/04 07:32:23;;;;;;;4.97;1.30;;;;;;;;;;5073177;28;21076;-67
2023/02/04 07:34:48;;;;;;;4.25;1.20;;;;;;;;;;5074837;28;20016;-64
2023/02/04 07:37:13;;;;;;;5.70;1.47;;;;;;;;;;5072604;28;20355;-66
2023/02/04 07:39:39;;;;;;;5.78;1.50;;;;;;;;;;5081893;28;20366;-65
2023/02/04 07:42:04;;;;;;;4.50;1.33;;;;;;;;;;5077017;28;20035;-65
2023/02/04 07:44:29;;;;;;;6.47;1.50;;;;;;;;;;5089746;28;20035;-68
2023/02/04 07:46:55;;;;;;;6.67;1.30;;;;;;;;;;5087367;28;20028;-69
2023/02/04 07:49:20;;;;;;;4.55;1.20;;;;;;;;;;5088559;28;20054;-69
2023/02/04 07:51:45;;;;;;;4.80;1.25;;;;;;;;;;5091700;28;20078;-66
2023/02/04 07:54:11;;;;;;;4.88;1.45;;;;;;;;;;5078378;28;20485;-65
2023/02/04 07:56:36;;;;;;;4.35;1.23;;;;;;;;;;5094948;28;20023;-66
2023/02/04 07:59:01;;;;;;;3.47;1.03;;;;;;;;;;5078787;28;20054;-66
2023/02/04 08:01:26;;;;;;;5.68;1.52;;;;;;;;;;5088165;28;20016;-70
2023/02/04 08:03:51;;;;;;;4.47;1.30;;;;;;;;;;5081639;28;20527;-66
2023/02/04 08:06:17;;;;;;;4.87;1.27;;;;;;;;;;5087430;28;20126;-67
2023/02/04 08:08:42;;;;;;;6.13;1.37;;;;;;;;;;5085235;28;20103;-64
2023/02/04 08:11:07;;;;;;;8.05;2.33;;;;;;;;;;5083945;28;20109;-64
2023/02/04 08:13:32;;;;;;;7.25;1.38;;;;;;;;;;5091468;28;20020;-65
2023/02/04 08:15:57;;;;;;;4.65;1.23;;;;;;;;;;5090308;28;20031;-66
2023/02/04 08:18:23;;;;;;;3.60;1.10;;;;;;;;;;5080038;28;20040;-66
2023/02/04 08:20:49;;;;;;;3.80;1.20;;;;;;;;;;5078525;28;20097;-71
2023/02/04 08:23:14;;;;;;;6.18;1.40;;;;;;;;;;5084409;28;20342;-65
2023/02/04 08:25:39;;;;;;;3.80;1.10;;;;;;;;;;5081310;28;20032;-66
2023/02/04 08:28:04;;;;;;;5.07;1.20;;;;;;;;;;5080699;28;20058;-66
2023/02/04 08:30:29;;;;;;;5.13;1.48;;;;;;;;;;5084197;28;20090;-66
2023/02/04 08:32:54;;;;;;;4.25;1.10;;;;;;;;;;5096324;28;20026;-70
2023/02/04 08:35:19;;;;;;;4.00;1.00;;;;;;;;;;5099047;28;20034;-67
2023/02/04 08:37:45;;;;;;;4.30;1.40;;;;;;;;;;5087487;28;20456;-66
2023/02/04 08:40:10;;;;;;;3.73;1.00;;;;;;;;;;5090149;28;20024;-67
2023/02/04 08:42:35;;;;;;;5.00;1.33;;;;;;;;;;5092971;28;20045;-68
2023/02/04 08:45:00;;;;;;;6.68;1.35;;;;;;;;;;5082009;28;20033;-66
2023/02/04 08:47:26;;;;;;;4.93;1.53;;;;;;;;;;5087559;28;20024;-67
2023/02/04 08:49:51;;;;;;;6.17;1.57;;;;;;;;;;5100678;28;20115;-66
2023/02/04 08:52:16;;;;;;;5.07;1.47;;;;;;;;;;5107714;28;20031;-68
2023/02/04 08:54:41;;;;;;;5.57;1.57;;;;;;;;;;5103200;28;20020;-66
2023/02/04 08:57:06;;;;;;;4.93;1.60;;;;;;;;;;5097407;28;20024;-67
2023/02/04 08:59:31;;;;;;;6.65;2.00;;;;;;;;;;5098218;28;20012;-66
2023/02/04 09:01:57;;;;;;;4.90;1.67;;;;;;;;;;5087775;28;20028;-68
2023/02/04 09:04:22;;;;;;;5.07;1.60;;;;;;;;;;5089541;28;20020;-65
2023/02/04 09:06:47;;;;;;;5.50;1.50;;;;;;;;;;5092539;28;20412;-66
2023/02/04 09:09:13;;;;;;;4.82;1.52;;;;;;;;;;5090311;28;20022;-65
2023/02/04 09:11:38;;;;;;;6.03;1.80;;;;;;;;;;5091398;28;20031;-66
2023/02/04 09:14:03;;;;;;;5.78;1.42;;;;;;;;;;5088739;28;20020;-65
2023/02/04 09:16:29;;;;;;;4.47;1.52;;;;;;;;;;5091452;28;20100;-65
2023/02/04 09:18:54;;;;;;;6.35;1.75;;;;;;;;;;5079706;28;20028;-66
2023/02/04 09:21:19;;;;;;;5.43;1.60;;;;;;;;;;5087952;28;20024;-66
2023/02/04 09:23:45;;;;;;;4.53;1.45;;;;;;;;;;5090335;28;20015;-65
2023/02/04 09:26:10;;;;;;;4.40;1.60;;;;;;;;;;5084515;28;20107;-65
2023/02/04 09:28:36;;;;;;;5.47;1.55;;;;;;;;;;5091946;28;20058;-65
2023/02/04 09:31:01;;;;;;;5.60;1.50;;;;;;;;;;5089873;28;20080;-66
2023/02/04 09:33:26;;;;;;;5.33;1.43;;;;;;;;;;5083350;28;20458;-66
2023/02/04 09:35:51;;;;;;;4.45;1.38;;;;;;;;;;5089420;28;20194;-66
2023/02/04 09:38:16;;;;;;;4.50;1.30;;;;;;;;;;5085444;28;20374;-67
2023/02/04 09:40:45;;;;;;;4.20;1.25;;;;;;;;;;5085279;28;20086;-65
2023/02/04 09:43:13;;;;;;;5.13;1.20;;;;;;;;;;5082059;28;20032;-67
2023/02/04 09:45:38;;;;;;;5.10;1.25;;;;;;;;;;5081379;28;20093;-66
2023/02/04 09:48:04;;;;;;;6.13;1.53;;;;;;;;;;5077582;28;20024;-66
2023/02/04 09:50:32;;;;;;;5.07;1.52;;;;;;;;;;5089281;28;20034;-68
2023/02/04 09:53:00;;;;;;;5.30;1.80;;;;;;;;;;5092003;28;20021;-66
2023/02/04 09:55:30;;;;;;;4.32;1.52;;;;;;;;;;5083063;28;20492;-65
2023/02/04 09:57:55;;;;;;;6.32;1.50;;;;;;;;;;5093114;28;20027;-67
2023/02/04 10:00:22;;;;;;;4.20;1.30;;;;;;;;;;5083293;28;20016;-65
2023/02/04 10:02:48;;;;;;;4.80;1.63;;;;;;;;;;5094264;28;20016;-65
2023/02/04 10:05:14;;;;;;;7.30;1.70;;;;;;;;;;5086186;28;20435;-67
2023/02/04 10:07:39;;;;;;;3.92;1.38;;;;;;;;;;5094327;28;20016;-67
2023/02/04 10:10:04;;;;;;;4.97;1.33;;;;;;;;;;5089954;28;20035;-65
2023/02/04 10:12:31;;;;;;;5.72;1.50;;;;;;;;;;5091012;28;20110;-65
2023/02/04 10:14:56;;;;;;;5.45;2.03;;;;;;;;;;5085194;28;20059;-66
2023/02/04 10:17:21;;;;;;;3.63;1.30;;;;;;;;;;5083351;28;20044;-67
2023/02/04 10:19:47;;;;;;;4.97;1.40;;;;;;;;;;5092341;28;20822;-66
2023/02/04 10:22:16;;;;;;;5.27;1.63;;;;;;;;;;5086181;28;20481;-68
2023/02/04 10:24:41;;;;;;;5.65;1.75;;;;;;;;;;5073316;28;20450;-66
2023/02/04 10:27:10;;;;;;;6.67;2.13;;;;;;;;;;5074092;28;20029;-68
2023/02/04 10:29:36;;;;;;;6.50;2.22;;;;;;;;;;5073070;28;20484;-65
2023/02/04 10:32:01;;;;;;;5.38;1.50;;;;;;;;;;5077061;28;20024;-68
2023/02/04 10:34:33;;;;;;;3.93;1.60;;;;;;;;;;5072456;28;20047;-66
2023/02/04 10:37:00;;;;;;;6.93;2.40;;;;;;;;;;5088652;28;20376;-65
2023/02/04 10:39:26;;;;;;;4.63;1.30;;;;;;;;;;5110565;28;20472;-65
2023/02/04 10:42:00;;;;;;;5.68;1.63;;;;;;;;;;5101238;28;20103;-65
2023/02/04 10:44:27;;;;;;;6.15;1.83;;;;;;;;;;5091644;28;20380;-65
2023/02/04 10:46:57;;;;;;;6.28;1.52;;;;;;;;;;5102700;28;20035;-69
2023/02/04 10:49:23;;;;;;;6.18;1.80;;;;;;;;;;5072252;28;20060;-66
2023/02/04 10:51:50;;;;;;;5.57;1.35;;;;;;;;;;5072427;28;20058;-66
2023/02/04 10:54:31;;;;;;;6.65;1.55;;;;;;;;;;5093591;28;20020;-65
2023/02/04 10:56:57;;;;;;;6.50;1.67;;;;;;;;;;5072704;28;20111;-66
2023/02/04 10:59:25;;;;;;;6.72;1.73;;;;;;;;;;5086630;28;20709;-65
2023/02/04 11:01:50;;;;;;;4.20;1.63;;;;;;;;;;5072511;28;20060;-65
2023/02/04 11:04:15;;;;;;;5.23;1.70;;;;;;;;;;5088275;28;20070;-65
2023/02/04 11:06:41;;;;;;;4.88;2.00;;;;;;;;;;5092214;28;20338;-65
2023/02/04 11:09:06;;;;;;;4.55;1.40;;;;;;;;;;5092815;28;20539;-66
2023/02/04 11:11:31;;;;;;;5.20;1.60;;;;;;;;;;5092007;28;20032;-64
2023/02/04 11:14:00;;;;;;;6.17;2.00;;;;;;;;;;5092530;28;20369;-68
2023/02/04 11:16:27;;;;;;;5.55;1.42;;;;;;;;;;5092602;28;20028;-64
2023/02/04 11:18:53;;;;;;;5.07;1.42;;;;;;;;;;5091406;28;20039;-66
2023/02/04 11:21:28;;;;;;;4.78;1.70;;;;;;;;;;5091439;28;20024;-66
2023/02/04 11:24:15;;;;;;;8.77;1.65;;;;;;;;;;5092148;28;20492;-65
2023/02/04 11:26:41;;;;;;;4.45;1.40;;;;;;;;;;5092457;28;20035;-65
2023/02/04 11:29:08;;;;;;;6.97;1.98;;;;;;;;;;5091780;28;20065;-66
2023/02/04 11:31:33;;;;;;;7.07;1.63;;;;;;;;;;5071256;28;20513;-65
2023/02/04 11:34:10;;;;;;;5.10;1.60;;;;;;;;;;5074187;28;20452;-65
2023/02/04 11:36:55;;;;;;;5.10;1.52;;;;;;;;;;5071073;28;20473;-65
2023/02/04 11:39:21;;;;;;;4.45;1.55;;;;;;;;;;5051112;28;20033;-70
2023/02/04 11:41:46;;;;;;;4.82;1.52;;;;;;;;;;5083177;28;20020;-67
2023/02/04 11:44:12;;;;;;;6.13;1.57;;;;;;;;;;5080492;28;20032;-66
2023/02/04 11:46:38;;;;;;;5.18;1.30;;;;;;;;;;5091314;28;20040;-65
2023/02/04 11:49:03;;;;;;;4.83;1.30;;;;;;;;;;5088772;28;20020;-67
2023/02/04 11:51:32;;;;;;;4.57;1.40;;;;;;;;;;5091194;28;20053;-66
2023/02/04 11:53:57;;;;;;;5.97;1.40;;;;;;;;;;5089312;28;20465;-66
2023/02/04 11:56:22;;;;;;;6.07;1.27;;;;;;;;;;5091086;28;20016;-66
2023/02/04 11:58:48;;;;;;;3.50;1.20;;;;;;;;;;5091680;28;20989;-64
2023/02/04 12:01:21;;;;;;;4.80;1.05;;;;;;;;;;5091044;28;20055;-65
2023/02/04 12:03:47;;;;;;;5.15;1.45;;;;;;;;;;5095448;28;20431;-68
2023/02/04 12:06:26;;;;;;;7.43;1.40;;;;;;;;;;5098382;28;20028;-67
2023/02/04 12:08:51;;;;;;;4.82;1.67;;;;;;;;;;5084860;28;20076;-66
2023/02/04 12:11:29;;;;;;;3.78;1.45;;;;;;;;;;5089973;28;20024;-69
2023/02/04 12:13:55;;;;;;;4.72;1.75;;;;;;;;;;5071369;28;20426;-65
2023/02/04 12:16:20;;;;;;;4.65;1.88;;;;;;;;;;5070687;28;20081;-65
2023/02/04 12:18:46;;;;;;;3.92;1.35;;;;;;;;;;5072938;28;20016;-67
2023/02/04 12:21:11;;;;;;;3.63;1.20;;;;;;;;;;5087588;28;20096;-66
2023/02/04 12:23:36;;;;;;;5.67;1.60;;;;;;;;;;5085920;28;20491;-67
2023/02/04 12:26:01;;;;;;;4.40;1.63;;;;;;;;;;5084904;28;20125;-65
2023/02/04 12:28:27;;;;;;;4.18;1.30;;;;;;;;;;5090731;28;20039;-67
2023/02/04 12:30:52;;;;;;;3.58;1.23;;;;;;;;;;5089300;28;20038;-66
2023/02/04 12:33:18;;;;;;;4.22;1.23;;;;;;;;;;5088523;28;20377;-67
2023/02/04 12:35:43;;;;;;;4.57;1.30;;;;;;;;;;5085993;28;20044;-70
2023/02/04 12:38:09;;;;;;;4.75;1.13;;;;;;;;;;5084242;28;20549;-68
2023/02/04 12:40:34;;;;;;;6.45;1.15;;;;;;;;;;5082969;28;20056;-66
2023/02/04 12:43:00;;;;;;;3.15;1.15;;;;;;;;;;5089798;28;20028;-66
2023/02/04 12:45:25;;;;;;;4.47;1.30;;;;;;;;;;5089854;28;20039;-66
2023/02/04 12:47:50;;;;;;;3.30;1.07;;;;;;;;;;5090839;28;20062;-66
2023/02/04 12:50:21;;;;;;;5.20;1.20;;;;;;;;;;5087781;28;20111;-65
2023/02/04 12:52:53;;;;;;;6.45;1.27;;;;;;;;;;5090882;28;20074;-68
2023/02/04 12:55:19;;;;;;;3.85;1.00;;;;;;;;;;5090062;28;20026;-69
2023/02/04 12:57:44;;;;;;;5.18;0.98;;;;;;;;;;5090766;28;20099;-66
2023/02/04 13:00:10;;;;;;;4.13;1.10;;;;;;;;;;5094367;28;20028;-65
2023/02/04 13:02:35;;;;;;;3.80;1.10;;;;;;;;;;5082552;28;20032;-68
2023/02/04 13:05:00;;;;;;;2.58;0.65;;;;;;;;;;5091694;28;20035;-66
2023/02/04 13:07:25;;;;;;;2.60;0.80;;;;;;;;;;5091474;28;20027;-69
2023/02/04 13:09:51;;;;;;;3.78;1.00;;;;;;;;;;5090044;28;20016;-65
2023/02/04 13:12:16;;;;;;;2.17;0.60;;;;;;;;;;5090619;28;20032;-66
2023/02/04 13:14:42;;;;;;;3.67;0.80;;;;;;;;;;5088524;28;20031;-65
2023/02/04 13:17:07;;;;;;;2.35;0.80;;;;;;;;;;5087651;28;20024;-65
2023/02/04 13:19:32;;;;;;;2.87;0.90;;;;;;;;;;5089956;28;20020;-68
2023/02/04 13:21:58;;;;;;;2.93;0.90;;;;;;;;;;5089365;28;20024;-68
2023/02/04 13:24:23;;;;;;;3.00;1.00;;;;;;;;;;5085275;28;20020;-70
2023/02/04 13:26:48;;;;;;;3.13;0.80;;;;;;;;;;5087785;28;20070;-65
2023/02/04 13:29:13;;;;;;;4.10;0.80;;;;;;;;;;5089843;28;20469;-68
2023/02/04 13:31:38;;;;;;;4.03;0.77;;;;;;;;;;5085442;28;20046;-66
2023/02/04 13:34:04;;;;;;;3.75;0.98;;;;;;;;;;5081196;28;20097;-68
2023/02/04 13:36:29;;;;;;;4.10;0.90;;;;;;;;;;5080084;28;20099;-65
2023/02/04 13:38:54;;;;;;;3.57;0.80;;;;;;;;;;5094800;28;20114;-72
2023/02/04 13:41:19;;;;;;;3.90;0.90;;;;;;;;;;5094276;28;20016;-66
2023/02/04 13:43:44;;;;;;;5.73;1.37;;;;;;;;;;5094501;28;20442;-68
2023/02/04 13:46:10;;;;;;;6.65;1.30;;;;;;;;;;5094125;28;20089;-67
2023/02/04 13:48:35;;;;;;;4.33;0.90;;;;;;;;;;5089504;28;20012;-70
2023/02/04 13:51:00;;;;;;;3.92;0.80;;;;;;;;;;5084863;28;20052;-66
2023/02/04 13:53:29;;;;;;;2.13;0.63;;;;;;;;;;5094021;28;20435;-64
2023/02/04 13:55:55;;;;;;;3.10;0.90;;;;;;;;;;5093616;28;20427;-66
2023/02/04 13:58:20;;;;;;;4.70;1.33;;;;;;;;;;5093508;28;20016;-68
2023/02/04 14:00:45;;;;;;;3.60;0.90;;;;;;;;;;5093452;28;20461;-64
2023/02/04 14:03:10;;;;;;;3.28;0.70;;;;;;;;;;5093622;28;20016;-68
2023/02/04 14:05:35;;;;;;;2.78;0.50;;;;;;;;;;5093225;28;20111;-67
2023/02/04 14:08:00;;;;;;;3.03;0.60;;;;;;;;;;5082706;28;20016;-66
2023/02/04 14:10:25;;;;;;;3.28;0.70;;;;;;;;;;5073631;28;20445;-67
2023/02/04 14:12:51;;;;;;;3.30;0.67;;;;;;;;;;5073926;28;20020;-70
2023/02/04 14:15:16;;;;;;;3.23;0.70;;;;;;;;;;5085313;28;20488;-67
2023/02/04 14:17:41;;;;;;;4.03;0.80;;;;;;;;;;5082714;28;20823;-66
2023/02/04 14:20:07;;;;;;;2.37;0.53;;;;;;;;;;5084008;28;20050;-66
2023/02/04 14:22:32;;;;;;;2.85;0.63;;;;;;;;;;5073465;28;20154;-69
2023/02/04 14:24:57;;;;;;;3.05;0.70;;;;;;;;;;5081352;28;20156;-65
2023/02/04 14:27:22;;;;;;;2.83;0.60;;;;;;;;;;5078089;28;20024;-66
2023/02/04 14:29:47;;;;;;;2.55;0.73;;;;;;;;;;5085759;28;20107;-66
2023/02/04 14:32:12;;;;;;;3.70;0.60;;;;;;;;;;5082969;28;20032;-66
2023/02/04 14:34:38;;;;;;;2.70;0.68;;;;;;;;;;5082712;28;20038;-67